createdAt,value
2018-07-21T00:02:04.590Z,54.16
2018-07-21T00:04:31.616Z,54.47
2018-07-21T00:06:58.638Z,54.37
2018-07-21T00:09:26.112Z,54.08
2018-07-21T00:11:53.128Z,54.10
2018-07-21T00:14:20.125Z,54.02
2018-07-21T00:16:47.104Z,53.74
2018-07-21T00:19:14.082Z,53.96
2018-07-21T00:21:41.256Z,53.56
2018-07-21T00:24:08.949Z,53.78
2018-07-21T00:26:49.218Z,54.02
2018-07-21T00:29:17.108Z,53.63
2018-07-21T00:31:44.146Z,53.35
2018-07-21T00:34:11.133Z,53.57
2018-07-21T00:36:38.669Z,53.89
2018-07-21T00:39:08.809Z,53.68
2018-07-21T00:41:35.817Z,53.55
2018-07-21T00:44:02.849Z,53.90
2018-07-21T00:46:29.937Z,53.89
2018-07-21T00:48:56.932Z,54.30
2018-07-21T00:51:23.941Z,53.82
2018-07-21T00:53:51.333Z,54.11
2018-07-21T00:56:18.304Z,53.96
2018-07-21T00:58:45.310Z,53.63
2018-07-21T01:01:12.292Z,53.80
2018-07-21T01:03:39.322Z,53.75
2018-07-21T01:06:06.321Z,54.31
2018-07-21T01:08:33.397Z,54.06
2018-07-21T01:11:00.401Z,53.76
2018-07-21T01:13:27.381Z,53.57
2018-07-21T01:15:54.398Z,53.96
2018-07-21T01:18:21.402Z,54.18
2018-07-21T01:20:48.484Z,54.24
2018-07-21T01:23:15.494Z,53.63
2018-07-21T01:25:42.529Z,53.92
2018-07-21T01:28:09.619Z,54.04
2018-07-21T01:30:36.602Z,54.00
2018-07-21T01:33:03.632Z,53.66
2018-07-21T01:35:30.744Z,54.19
2018-07-21T01:37:57.750Z,54.05
2018-07-21T01:40:24.747Z,54.15
2018-07-21T01:42:52.077Z,54.75
2018-07-21T01:45:19.069Z,54.25
2018-07-21T01:47:46.050Z,54.32
2018-07-21T01:50:13.049Z,54.19
2018-07-21T01:52:40.042Z,54.07
2018-07-21T01:55:07.122Z,54.31
2018-07-21T01:57:34.149Z,54.61
2018-07-21T02:00:01.121Z,54.51
2018-07-21T02:02:28.170Z,54.80
2018-07-21T02:04:55.161Z,54.78
2018-07-21T02:07:22.153Z,54.48
2018-07-21T02:09:49.150Z,54.34
2018-07-21T02:12:16.245Z,53.83
2018-07-21T02:14:43.252Z,54.08
2018-07-21T02:17:10.625Z,54.42
2018-07-21T02:19:37.710Z,54.08
2018-07-21T02:22:04.745Z,54.89
2018-07-21T02:24:31.981Z,55.53
2018-07-21T02:26:58.959Z,55.54
2018-07-21T02:29:25.949Z,55.11
2018-07-21T02:31:52.917Z,55.68
2018-07-21T02:34:20.009Z,56.04
2018-07-21T02:36:47.017Z,56.26
2018-07-21T02:39:14.069Z,56.50
2018-07-21T02:41:41.285Z,56.27
2018-07-21T02:44:08.312Z,56.71
2018-07-21T02:46:35.497Z,56.85
2018-07-21T02:49:02.505Z,57.30
2018-07-21T02:51:29.585Z,57.68
2018-07-21T02:53:56.680Z,57.74
2018-07-21T02:56:23.661Z,57.81
2018-07-21T02:58:50.821Z,57.93
2018-07-21T03:01:17.858Z,57.73
2018-07-21T03:03:45.474Z,58.47
2018-07-21T03:06:12.482Z,57.92
2018-07-21T03:08:39.497Z,58.38
2018-07-21T03:11:06.558Z,58.14
2018-07-21T03:13:33.674Z,59.15
2018-07-21T03:16:00.667Z,58.92
2018-07-21T03:18:27.701Z,59.13
2018-07-21T03:20:54.665Z,59.00
2018-07-21T03:23:21.658Z,59.90
2018-07-21T03:25:48.600Z,60.11
2018-07-21T03:28:15.552Z,60.43
2018-07-21T03:30:42.650Z,60.16
2018-07-21T03:33:09.562Z,60.43
2018-07-21T03:35:36.545Z,60.78
2018-07-21T03:38:03.860Z,60.40
2018-07-21T03:40:30.905Z,60.97
2018-07-21T03:42:57.820Z,61.06
2018-07-21T03:45:24.812Z,61.16
2018-07-21T03:47:51.768Z,61.21
2018-07-21T03:50:18.737Z,61.22
2018-07-21T03:52:45.918Z,61.64
2018-07-21T03:55:13.085Z,61.73
2018-07-21T03:57:40.013Z,62.00
2018-07-21T04:00:07.079Z,62.26
2018-07-21T04:02:34.061Z,61.79
2018-07-21T04:05:01.050Z,61.74
2018-07-21T04:07:28.096Z,61.75
2018-07-21T04:09:55.089Z,61.94
2018-07-21T04:12:22.064Z,61.95
2018-07-21T04:14:49.138Z,61.99
2018-07-21T04:17:21.482Z,62.17
2018-07-21T04:19:48.484Z,62.02
2018-07-21T04:22:15.512Z,62.15
2018-07-21T04:24:42.549Z,61.69
2018-07-21T04:27:09.534Z,61.25
2018-07-21T04:29:36.508Z,61.89
2018-07-21T04:32:03.617Z,61.50
2018-07-21T04:34:30.605Z,61.52
2018-07-21T04:36:57.658Z,61.50
2018-07-21T04:39:24.617Z,61.52
2018-07-21T04:41:51.572Z,61.39
2018-07-21T04:44:18.545Z,60.56
2018-07-21T04:46:45.716Z,60.31
2018-07-21T04:49:12.681Z,60.31
2018-07-21T04:51:39.654Z,59.87
2018-07-21T04:54:06.637Z,59.78
2018-07-21T04:56:33.672Z,59.91
2018-07-21T04:59:00.685Z,59.09
2018-07-21T05:01:27.666Z,58.67
2018-07-21T05:03:54.626Z,58.65
2018-07-21T05:06:21.665Z,59.00
2018-07-21T05:08:48.701Z,58.43
2018-07-21T05:11:15.704Z,57.60
2018-07-21T05:13:42.689Z,57.44
2018-07-21T05:16:09.792Z,57.93
2018-07-21T05:18:36.841Z,57.46
2018-07-21T05:21:03.829Z,56.99
2018-07-21T05:23:30.873Z,57.14
2018-07-21T05:25:57.896Z,57.17
2018-07-21T05:28:24.862Z,56.02
2018-07-21T05:30:51.933Z,56.48
2018-07-21T05:33:18.889Z,54.92
2018-07-21T05:35:45.886Z,54.99
2018-07-21T05:38:12.869Z,54.32
2018-07-21T05:40:39.880Z,54.59
2018-07-21T05:43:06.993Z,53.88
2018-07-21T05:45:33.989Z,53.69
2018-07-21T05:48:00.957Z,53.02
2018-07-21T05:50:28.037Z,53.29
2018-07-21T05:52:55.101Z,52.44
2018-07-21T05:55:22.189Z,52.66
2018-07-21T05:57:49.193Z,52.69
2018-07-21T06:00:16.204Z,52.80
2018-07-21T06:02:43.365Z,53.35
2018-07-21T06:05:10.339Z,52.79
2018-07-21T06:07:37.324Z,52.59
2018-07-21T06:10:04.366Z,52.30
2018-07-21T06:12:31.497Z,52.27
2018-07-21T06:14:58.539Z,51.94
2018-07-21T06:17:26.121Z,51.75
2018-07-21T06:19:53.081Z,51.72
2018-07-21T06:22:20.189Z,52.29
2018-07-21T06:24:47.328Z,51.66
2018-07-21T06:27:14.327Z,52.52
2018-07-21T06:29:41.915Z,52.58
2018-07-21T06:32:09.145Z,51.62
2018-07-21T06:34:36.706Z,51.95
2018-07-21T06:37:03.817Z,52.33
2018-07-21T06:39:30.768Z,52.10
2018-07-21T06:41:57.757Z,52.12
2018-07-21T06:44:24.724Z,52.06
2018-07-21T06:46:52.549Z,52.21
2018-07-21T06:49:19.533Z,52.00
2018-07-21T06:51:46.601Z,51.85
2018-07-21T06:54:13.576Z,52.34
2018-07-21T06:56:40.673Z,52.74
2018-07-21T06:59:07.674Z,51.89
2018-07-21T07:01:34.629Z,52.08
2018-07-21T07:04:01.864Z,52.28
2018-07-21T07:06:28.832Z,52.62
2018-07-21T07:08:55.802Z,52.83
2018-07-21T07:11:22.854Z,52.77
2018-07-21T07:13:49.849Z,53.15
2018-07-21T07:16:17.351Z,52.22
2018-07-21T07:18:45.153Z,51.82
2018-07-21T07:21:12.141Z,51.23
2018-07-21T07:23:39.141Z,51.62
2018-07-21T07:26:06.099Z,51.93
2018-07-21T07:28:33.075Z,51.47
2018-07-21T07:31:00.061Z,50.68
2018-07-21T07:33:27.045Z,50.84
2018-07-21T07:35:54.005Z,51.75
2018-07-21T07:38:21.013Z,51.42
2018-07-21T07:40:47.965Z,51.50
2018-07-21T07:43:14.979Z,51.96
2018-07-21T07:45:41.960Z,51.91
2018-07-21T07:48:08.965Z,51.87
2018-07-21T07:50:35.950Z,52.13
2018-07-21T07:53:03.024Z,50.63
2018-07-21T07:55:31.079Z,49.89
2018-07-21T07:57:58.357Z,49.51
2018-07-21T08:00:25.333Z,48.80
2018-07-21T08:02:52.438Z,48.28
2018-07-21T08:05:19.425Z,47.52
2018-07-21T08:07:46.546Z,48.34
2018-07-21T08:10:14.092Z,48.12
2018-07-21T08:12:41.064Z,47.97
2018-07-21T08:15:08.132Z,48.43
2018-07-21T08:17:35.245Z,47.32
2018-07-21T08:20:02.253Z,48.43
2018-07-21T08:22:29.220Z,46.90
2018-07-21T08:24:56.165Z,48.01
2018-07-21T08:27:23.168Z,48.51
2018-07-21T08:29:50.188Z,48.99
2018-07-21T08:32:17.268Z,48.56
2018-07-21T08:34:44.361Z,47.95
2018-07-21T08:37:11.293Z,47.29
2018-07-21T08:39:38.273Z,47.04
2018-07-21T08:42:05.221Z,46.30
2018-07-21T08:44:32.277Z,46.02
2018-07-21T08:46:59.282Z,46.52
2018-07-21T08:49:26.340Z,46.71
2018-07-21T08:51:53.320Z,46.64
2018-07-21T08:54:20.421Z,47.78
2018-07-21T08:56:47.369Z,46.32
2018-07-21T08:59:14.507Z,45.72
2018-07-21T09:01:41.476Z,46.06
2018-07-21T09:04:08.481Z,46.93
2018-07-21T09:06:35.457Z,47.30
2018-07-21T09:09:02.601Z,46.98
2018-07-21T09:11:29.577Z,47.05
2018-07-21T09:13:56.548Z,46.61
2018-07-21T09:16:23.521Z,47.08
2018-07-21T09:18:50.536Z,47.18
2018-07-21T09:21:17.485Z,45.98
2018-07-21T09:23:44.513Z,46.70
2018-07-21T09:26:11.581Z,46.92
2018-07-21T09:28:38.664Z,46.23
2018-07-21T09:31:05.697Z,45.53
2018-07-21T09:33:32.691Z,45.17
2018-07-21T09:35:59.657Z,44.80
2018-07-21T09:38:26.653Z,42.82
2018-07-21T09:40:53.612Z,42.44
2018-07-21T09:43:20.591Z,42.73
2018-07-21T09:45:47.567Z,42.80
2018-07-21T09:48:14.556Z,42.88
2018-07-21T09:50:41.562Z,43.45
2018-07-21T09:53:09.262Z,43.77
2018-07-21T09:55:36.254Z,42.62
2018-07-21T09:58:03.216Z,42.29
2018-07-21T10:00:35.934Z,42.51
2018-07-21T10:03:02.909Z,42.90
2018-07-21T10:05:29.916Z,41.64
2018-07-21T10:07:56.890Z,41.56
2018-07-21T10:10:23.896Z,41.73
2018-07-21T10:12:51.555Z,41.29
2018-07-21T10:15:18.533Z,41.40
2018-07-21T10:17:45.542Z,38.73
2018-07-21T10:20:12.645Z,40.13
2018-07-21T10:22:39.664Z,40.11
2018-07-21T10:25:12.325Z,40.58
2018-07-21T10:27:45.105Z,38.83
2018-07-21T10:30:12.181Z,38.70
2018-07-21T10:32:39.153Z,36.58
2018-07-21T10:35:06.141Z,38.16
2018-07-21T10:37:33.120Z,38.52
2018-07-21T10:40:00.160Z,38.19
2018-07-21T10:42:27.138Z,38.97
2018-07-21T10:44:54.153Z,38.76
2018-07-21T10:47:21.164Z,38.41
2018-07-21T10:49:48.577Z,38.46
2018-07-21T10:52:15.529Z,37.65
2018-07-21T10:54:42.550Z,39.08
2018-07-21T10:57:09.593Z,38.29
2018-07-21T10:59:36.580Z,37.89
2018-07-21T11:02:03.590Z,38.13
2018-07-21T11:04:30.665Z,37.58
2018-07-21T11:06:57.717Z,37.95
2018-07-21T11:09:24.690Z,37.41
2018-07-21T11:11:51.642Z,37.50
2018-07-21T11:14:18.625Z,36.92
2018-07-21T11:16:45.633Z,37.43
2018-07-21T11:19:12.664Z,36.51
2018-07-21T11:21:39.701Z,36.38
2018-07-21T11:24:06.666Z,36.91
2018-07-21T11:26:33.664Z,37.57
2018-07-21T11:29:00.636Z,37.34
2018-07-21T11:31:27.611Z,37.65
2018-07-21T11:33:54.585Z,37.23
2018-07-21T11:36:21.606Z,37.12
2018-07-21T11:38:48.556Z,37.37
2018-07-21T11:41:15.634Z,37.76
2018-07-21T11:43:42.593Z,38.27
2018-07-21T11:46:09.584Z,37.88
2018-07-21T11:48:36.578Z,35.54
2018-07-21T11:51:03.773Z,37.10
2018-07-21T11:53:30.777Z,36.14
2018-07-21T11:55:57.833Z,36.19
2018-07-21T11:58:24.813Z,36.57
2018-07-21T12:00:51.825Z,37.41
2018-07-21T12:03:18.780Z,36.67
2018-07-21T12:05:45.979Z,37.36
2018-07-21T12:08:13.177Z,36.28
2018-07-21T12:10:40.212Z,36.73
2018-07-21T12:13:07.238Z,37.25
2018-07-21T12:15:34.215Z,37.39
2018-07-21T12:18:01.177Z,36.30
2018-07-21T12:20:28.161Z,36.19
2018-07-21T12:22:55.152Z,36.02
2018-07-21T12:25:22.137Z,36.06
2018-07-21T12:27:49.176Z,35.94
2018-07-21T12:30:16.157Z,36.43
2018-07-21T12:32:43.109Z,35.71
2018-07-21T12:35:10.129Z,35.15
2018-07-21T12:37:37.201Z,35.14
2018-07-21T12:40:04.376Z,34.49
2018-07-21T12:42:31.385Z,35.35
2018-07-21T12:44:58.390Z,34.92
2018-07-21T12:47:25.329Z,34.74
2018-07-21T12:49:52.284Z,34.27
2018-07-21T12:52:19.289Z,34.16
2018-07-21T12:54:46.981Z,34.47
2018-07-21T12:57:14.013Z,34.30
2018-07-21T12:59:40.968Z,34.59
2018-07-21T13:02:07.945Z,34.39
2018-07-21T13:04:35.085Z,33.97
2018-07-21T13:07:02.069Z,34.80
2018-07-21T13:09:29.041Z,35.33
2018-07-21T13:11:56.065Z,34.87
2018-07-21T13:14:23.065Z,34.17
2018-07-21T13:16:50.069Z,34.06
2018-07-21T13:19:17.721Z,34.08
2018-07-21T13:21:44.777Z,34.67
2018-07-21T13:24:11.777Z,34.09
2018-07-21T13:26:38.773Z,33.60
2018-07-21T13:29:05.753Z,34.29
2018-07-21T13:31:32.782Z,33.52
2018-07-21T13:33:59.789Z,33.34
2018-07-21T13:36:26.764Z,33.81
2018-07-21T13:38:53.729Z,34.53
2018-07-21T13:41:20.758Z,33.37
2018-07-21T13:43:47.720Z,33.77
2018-07-21T13:46:14.718Z,33.54
2018-07-21T13:48:41.737Z,33.69
2018-07-21T13:51:08.754Z,33.64
2018-07-21T13:53:35.716Z,33.73
2018-07-21T13:56:02.761Z,33.80
2018-07-21T13:58:29.777Z,33.81
2018-07-21T14:00:56.757Z,34.44
2018-07-21T14:03:23.749Z,33.87
2018-07-21T14:05:50.729Z,33.83
2018-07-21T14:08:17.722Z,34.14
2018-07-21T14:10:44.725Z,34.09
2018-07-21T14:13:11.756Z,33.84
2018-07-21T14:15:38.796Z,33.54
2018-07-21T14:18:06.036Z,34.04
2018-07-21T14:20:33.006Z,33.70
2018-07-21T14:23:00.014Z,34.04
2018-07-21T14:25:27.006Z,34.46
2018-07-21T14:27:54.824Z,35.11
2018-07-21T14:30:21.826Z,34.69
2018-07-21T14:32:48.800Z,34.64
2018-07-21T14:35:15.884Z,35.08
2018-07-21T14:37:42.975Z,35.66
2018-07-21T14:40:09.950Z,35.01
2018-07-21T14:42:36.962Z,34.97
2018-07-21T14:45:04.506Z,35.17
2018-07-21T14:47:31.665Z,35.06
2018-07-21T14:49:58.594Z,34.84
2018-07-21T14:52:25.628Z,35.55
2018-07-21T14:54:52.710Z,35.55
2018-07-21T14:57:19.625Z,35.38
2018-07-21T14:59:46.599Z,35.22
2018-07-21T15:02:13.768Z,35.23
2018-07-21T15:04:41.069Z,35.84
2018-07-21T15:07:08.477Z,36.37
2018-07-21T15:09:35.543Z,35.98
2018-07-21T15:12:02.521Z,36.56
2018-07-21T15:14:29.513Z,36.18
2018-07-21T15:16:56.477Z,36.21
2018-07-21T15:19:23.988Z,35.73
2018-07-21T15:21:51.017Z,35.71
2018-07-21T15:24:17.997Z,35.67
2018-07-21T15:26:44.976Z,36.30
2018-07-21T15:29:12.009Z,37.10
2018-07-21T15:31:39.048Z,36.69
2018-07-21T15:34:06.092Z,36.90
2018-07-21T15:36:33.113Z,38.05
2018-07-21T15:39:00.128Z,38.17
2018-07-21T15:41:27.126Z,37.87
2018-07-21T15:43:55.092Z,37.88
2018-07-21T15:46:22.256Z,37.71
2018-07-21T15:48:49.282Z,36.77
2018-07-21T15:51:16.244Z,36.74
2018-07-21T15:53:43.296Z,37.98
2018-07-21T15:56:10.321Z,37.84
2018-07-21T15:58:37.433Z,38.11
2018-07-21T16:01:04.501Z,37.50
2018-07-21T16:03:31.511Z,37.49
2018-07-21T16:05:58.546Z,37.61
2018-07-21T16:08:25.510Z,37.87
2018-07-21T16:10:52.510Z,37.96
2018-07-21T16:13:19.529Z,38.15
2018-07-21T16:15:46.517Z,38.33
2018-07-21T16:18:13.516Z,38.75
2018-07-21T16:20:40.708Z,38.93
2018-07-21T16:23:07.885Z,38.55
2018-07-21T16:25:35.672Z,38.81
2018-07-21T16:28:02.690Z,38.95
2018-07-21T16:30:29.637Z,38.73
2018-07-21T16:32:56.809Z,38.84
2018-07-21T16:35:23.803Z,39.04
2018-07-21T16:37:50.781Z,39.07
2018-07-21T16:40:17.779Z,39.51
2018-07-21T16:42:44.765Z,39.42
2018-07-21T16:45:11.734Z,38.82
2018-07-21T16:47:38.726Z,39.01
2018-07-21T16:50:05.892Z,38.88
2018-07-21T16:52:33.069Z,38.64
2018-07-21T16:55:00.041Z,39.31
2018-07-21T16:57:27.139Z,38.83
2018-07-21T16:59:54.245Z,39.51
2018-07-21T17:02:21.156Z,39.65
2018-07-21T17:04:48.161Z,39.86
2018-07-21T17:07:15.119Z,39.93
2018-07-21T17:09:42.073Z,39.57
2018-07-21T17:12:09.029Z,40.02
2018-07-21T17:14:36.165Z,40.27
2018-07-21T17:17:03.153Z,40.42
2018-07-21T17:19:30.129Z,40.57
2018-07-21T17:21:57.133Z,40.73
2018-07-21T17:24:24.141Z,40.60
2018-07-21T17:26:51.093Z,39.98
2018-07-21T17:29:18.084Z,40.29
2018-07-21T17:31:45.057Z,40.50
2018-07-21T17:34:12.029Z,40.24
2018-07-21T17:36:39.100Z,40.35
2018-07-21T17:39:07.479Z,40.57
2018-07-21T17:41:34.461Z,40.38
2018-07-21T17:44:01.492Z,39.55
2018-07-21T17:46:28.567Z,39.86
2018-07-21T17:48:55.540Z,39.86
2018-07-21T17:51:22.617Z,39.54
2018-07-21T17:53:49.609Z,40.01
2018-07-21T17:56:16.630Z,40.44
2018-07-21T17:58:43.597Z,39.89
2018-07-21T18:01:10.590Z,39.85
2018-07-21T18:03:37.556Z,39.58
2018-07-21T18:06:04.827Z,39.58
2018-07-21T18:08:31.799Z,39.67
2018-07-21T18:10:58.776Z,40.14
2018-07-21T18:13:26.577Z,39.92
2018-07-21T18:15:54.538Z,40.05
2018-07-21T18:18:21.612Z,40.00
2018-07-21T18:20:48.580Z,39.73
2018-07-21T18:23:15.585Z,40.57
2018-07-21T18:25:42.792Z,40.34
2018-07-21T18:28:10.056Z,40.30
2018-07-21T18:30:37.025Z,40.56
2018-07-21T18:33:04.260Z,40.89
2018-07-21T18:35:31.221Z,40.55
2018-07-21T18:37:58.256Z,40.76
2018-07-21T18:40:25.407Z,40.78
2018-07-21T18:42:52.376Z,41.31
2018-07-21T18:45:19.426Z,40.97
2018-07-21T18:47:46.389Z,41.29
2018-07-21T18:50:13.417Z,41.10
2018-07-21T18:52:40.393Z,41.35
2018-07-21T18:55:07.344Z,41.66
2018-07-21T18:57:34.365Z,40.73
2018-07-21T19:00:01.571Z,41.28
2018-07-21T19:02:28.905Z,42.21
2018-07-21T19:04:55.938Z,42.32
2018-07-21T19:07:22.914Z,41.72
2018-07-21T19:09:49.860Z,42.57
2018-07-21T19:12:22.785Z,42.30
2018-07-21T19:14:50.058Z,42.72
2018-07-21T19:17:17.020Z,42.92
2018-07-21T19:19:49.690Z,42.66
2018-07-21T19:22:16.649Z,42.88
2018-07-21T19:24:43.981Z,43.35
2018-07-21T19:27:16.705Z,43.71
2018-07-21T19:29:43.672Z,42.95
2018-07-21T19:32:16.293Z,43.71
2018-07-21T19:34:43.256Z,43.97
2018-07-21T19:37:16.058Z,43.60
2018-07-21T19:39:43.354Z,43.74
2018-07-21T19:42:10.318Z,43.69
2018-07-21T19:44:37.364Z,43.75
2018-07-21T19:47:05.782Z,44.56
2018-07-21T19:49:32.788Z,44.19
2018-07-21T19:51:59.753Z,44.92
2018-07-21T19:54:26.738Z,44.61
2018-07-21T19:56:53.932Z,45.66
2018-07-21T19:59:20.876Z,45.33
2018-07-21T20:01:47.860Z,46.30
2018-07-21T20:04:15.033Z,46.63
2018-07-21T20:06:42.537Z,46.55
2018-07-21T20:09:10.041Z,46.58
2018-07-21T20:11:37.238Z,47.24
2018-07-21T20:14:04.355Z,47.55
2018-07-21T20:16:31.345Z,47.01
2018-07-21T20:18:58.465Z,47.59
2018-07-21T20:21:25.597Z,47.90
2018-07-21T20:23:52.633Z,47.45
2018-07-21T20:26:19.616Z,47.80
2018-07-21T20:28:46.573Z,47.23
2018-07-21T20:31:13.557Z,47.45
2018-07-21T20:33:40.509Z,47.33
2018-07-21T20:36:07.457Z,47.98
2018-07-21T20:38:35.179Z,47.48
2018-07-21T20:41:02.166Z,48.06
2018-07-21T20:43:29.232Z,48.12
2018-07-21T20:45:56.149Z,48.12
2018-07-21T20:48:23.186Z,48.18
2018-07-21T20:50:50.272Z,47.71
2018-07-21T20:53:17.482Z,48.31
2018-07-21T20:55:44.469Z,48.42
2018-07-21T20:58:11.664Z,48.06
2018-07-21T21:00:38.702Z,47.60
2018-07-21T21:03:05.694Z,48.01
2018-07-21T21:05:32.648Z,47.81
2018-07-21T21:07:59.613Z,48.66
2018-07-21T21:10:26.625Z,48.17
2018-07-21T21:12:53.833Z,48.48
2018-07-21T21:15:20.928Z,48.31
2018-07-21T21:17:47.917Z,49.07
2018-07-21T21:20:14.888Z,48.91
2018-07-21T21:22:41.896Z,49.10
2018-07-21T21:25:08.985Z,49.36
2018-07-21T21:27:35.981Z,49.63
2018-07-21T21:30:02.989Z,48.78
2018-07-21T21:32:30.097Z,49.43
2018-07-21T21:34:57.081Z,49.27
2018-07-21T21:37:24.109Z,49.62
2018-07-21T21:39:51.173Z,49.18
2018-07-21T21:42:18.321Z,49.70
2018-07-21T21:44:45.418Z,49.89
2018-07-21T21:47:12.444Z,49.45
2018-07-21T21:49:39.477Z,49.56
2018-07-21T21:52:06.505Z,49.46
2018-07-21T21:54:33.599Z,49.96
2018-07-21T21:57:00.580Z,50.24
2018-07-21T21:59:27.673Z,49.84
2018-07-21T22:01:54.665Z,49.09
2018-07-21T22:04:21.639Z,49.02
2018-07-21T22:06:48.665Z,49.76
2018-07-21T22:09:16.311Z,49.24
2018-07-21T22:11:43.297Z,49.26
2018-07-21T22:14:10.300Z,49.01
2018-07-21T22:16:37.300Z,49.06
2018-07-21T22:19:04.619Z,48.66
2018-07-21T22:21:31.725Z,49.73
2018-07-21T22:23:59.362Z,49.59
2018-07-21T22:26:26.405Z,49.61
2018-07-21T22:28:53.397Z,50.20
2018-07-21T22:31:20.658Z,50.30
2018-07-21T22:33:47.645Z,49.49
2018-07-21T22:36:14.641Z,49.45
2018-07-21T22:38:41.673Z,50.15
2018-07-21T22:41:08.873Z,50.14
2018-07-21T22:43:35.929Z,49.80
2018-07-21T22:46:03.623Z,50.28
2018-07-21T22:48:31.329Z,49.65
2018-07-21T22:50:58.353Z,49.73
2018-07-21T22:53:25.352Z,50.01
2018-07-21T22:55:52.345Z,50.18
2018-07-21T22:58:19.449Z,49.78
2018-07-21T23:00:46.458Z,50.32
2018-07-21T23:03:13.496Z,50.38
2018-07-21T23:05:41.419Z,50.20
2018-07-21T23:08:08.406Z,49.95
2018-07-21T23:10:35.462Z,50.08
2018-07-21T23:13:02.534Z,50.66
2018-07-21T23:15:29.477Z,50.84
2018-07-21T23:17:56.569Z,50.77
2018-07-21T23:20:24.433Z,50.55
2018-07-21T23:22:51.388Z,50.31
2018-07-21T23:25:18.356Z,50.92
2018-07-21T23:27:45.349Z,50.58
2018-07-21T23:30:12.333Z,50.76
2018-07-21T23:32:39.318Z,50.65
2018-07-21T23:35:06.336Z,51.34
2018-07-21T23:37:33.376Z,51.32
2018-07-21T23:40:00.371Z,51.75
2018-07-21T23:42:27.369Z,51.76
2018-07-21T23:44:54.373Z,52.03
2018-07-21T23:47:21.345Z,51.99
2018-07-21T23:49:48.330Z,52.78
2018-07-21T23:52:15.331Z,53.02
2018-07-21T23:54:42.323Z,52.13
2018-07-21T23:57:09.289Z,52.68
2018-07-21T23:59:36.300Z,52.80
